M I D A S
Marine Information and Data Acquisition System
Tripno 945 of the Zeeleeuw from 2005-04-13 06:34:00 to 2005-04-13 13:48:16
Back to CruiseResearch ActivitiesStationsMapUnderway DataData graphs

EquipmentUnitsComments
TimeDGPSUTC
LatitudeDGPSDM.mWGS84
LongitudeDGPSDM.mWGS84
SpeedMeteo Stationm/sRelative wind speed
DirectionMeteo StationdegRelative wind direction
TemperatureMeteo Stationdeg CelciusAir temperature
PressureMeteo StationPaAtmospheric pressure
HumidityMeteo Station%Relative humidity
Missing or incorrect values are displayed as -999
Metereological data collected by the RV Zeeleeuw from 2005-04-13 06:30:56 to 2005-04-13 13:59:09
Time Latitude Longitude Speed Direction Temperature Pressure Humidity
2005-04-13 06:32 51°13.594 2°56.098 1.5 93 9.4 101140 96
2005-04-13 06:33 51°13.59 2°56.104 4.9 58 9.4 101140 97
2005-04-13 06:34 51°13.564 2°56.14 3.6 52 9.4 101140 97
2005-04-13 06:35 51°13.551 2°56.202 2 127 9.5 101140 97
2005-04-13 06:36 51°13.554 2°56.205 1.9 235 9.5 101140 97
2005-04-13 06:37 51°13.554 2°56.197 2.3 217 9.6 101140 97
2005-04-13 06:38 51°13.547 2°56.189 2.5 248 9.6 101130 97
2005-04-13 06:39 51°13.546 2°56.187 4.4 299 9.6 101150 97
2005-04-13 06:40 51°13.586 2°56.089 3 353 9.6 101140 97
2005-04-13 06:41 51°13.644 2°55.955 3.6 309 9.6 101140 97
2005-04-13 06:42 51°13.692 2°55.848 3.3 40 9.6 101140 97
2005-04-13 06:43 51°13.75 2°55.72 3.6 290 9.6 101130 97
2005-04-13 06:44 51°13.86 2°55.606 1.4 346 9.6 101130 97
2005-04-13 06:45 51°13.992 2°55.513 5.1 312 9.6 101130 97
2005-04-13 06:46 51°14.134 2°55.415 4.3 338 9.6 101130 97
2005-04-13 06:47 51°14.263 2°55.255 7.9 340 9.7 101130 97
2005-04-13 06:48 51°14.388 2°55.018 8.9 326 9.6 101120 97
2005-04-13 06:49 51°14.513 2°54.72 10.8 327 9.6 101110 96
2005-04-13 06:50 51°14.637 2°54.406 11.6 322 9.6 101110 96
2005-04-13 06:51 51°14.763 2°54.097 10 326 9.5 101110 96
2005-04-13 06:52 51°14.89 2°53.787 10.7 324 9.5 101110 96
2005-04-13 06:53 51°15.004 2°53.473 11.1 325 9.5 101110 96
2005-04-13 06:54 51°15.099 2°53.142 9.4 329 9.4 101110 97
2005-04-13 06:55 51°15.195 2°52.81 10.7 327 9.4 101110 97
2005-04-13 06:56 51°15.278 2°52.477 10.7 334 9.4 101110 97
2005-04-13 06:57 51°15.351 2°52.13 12.1 332 9.4 101110 97
2005-04-13 06:58 51°15.418 2°51.767 11.5 341 9.4 101110 97
2005-04-13 06:59 51°15.413 2°51.439 10 342 9.4 101110 97
2005-04-13 07:00 51°15.403 2°51.237 8.8 330 9.4 101110 97
2005-04-13 07:01 51°15.413 2°51.105 7.2 315 9.3 101110 97
2005-04-13 07:02 51°15.434 2°51.012 6.3 299 9.3 101120 97
2005-04-13 07:03 51°15.456 2°50.943 6.5 295 9.3 101120 97
2005-04-13 07:04 51°15.473 2°50.885 5.4 292 9.3 101120 97
2005-04-13 07:05 51°15.489 2°50.836 6.1 297 9.3 101110 97
2005-04-13 07:06 51°15.502 2°50.792 5.8 301 9.3 101120 97
2005-04-13 07:07 51°15.513 2°50.743 6.4 313 9.3 101120 97
2005-04-13 07:08 51°15.521 2°50.691 5.7 321 9.3 101110 97
2005-04-13 07:09 51°15.524 2°50.64 6 333 9.3 101110 97
2005-04-13 07:10 51°15.521 2°50.589 5.6 346 9.3 101110 97
2005-04-13 07:11 51°15.512 2°50.544 5.9 1 9.3 101110 97
2005-04-13 07:12 51°15.498 2°50.511 6.3 26 9.3 101120 98
2005-04-13 07:13 51°15.482 2°50.49 5.5 47 9.3 101110 98
2005-04-13 07:14 51°15.47 2°50.48 6.6 60 9.3 101110 98
2005-04-13 07:15 51°15.462 2°50.473 5.4 69 9.3 101110 98
2005-04-13 07:16 51°15.455 2°50.467 5.3 69 9.3 101110 98
2005-04-13 07:17 51°15.452 2°50.458 5 72 9.3 101110 98
2005-04-13 07:18 51°15.451 2°50.449 4.7 70 9.3 101110 98
2005-04-13 07:19 51°15.451 2°50.44 4.9 73 9.3 101110 98
2005-04-13 07:20 51°15.452 2°50.429 4.8 72 9.2 101100 98
2005-04-13 07:21 51°15.453 2°50.419 4.7 76 9.2 101110 98
2005-04-13 07:22 51°15.454 2°50.409 5.2 82 9.3 101110 98
2005-04-13 07:23 51°15.455 2°50.399 4.8 86 9.2 101110 98
2005-04-13 07:24 51°15.456 2°50.388 4.9 89 9.2 101110 98
2005-04-13 07:25 51°15.457 2°50.376 4.7 88 9.2 101100 98
2005-04-13 07:26 51°15.458 2°50.364 5.1 87 9.2 101100 98
2005-04-13 07:27 51°15.459 2°50.352 4.4 86 9.2 101100 98
2005-04-13 07:28 51°15.459 2°50.339 4.8 84 9.2 101100 98
2005-04-13 07:29 51°15.459 2°50.326 3.8 79 9.2 101100 99
2005-04-13 07:30 51°15.46 2°50.313 3.4 77 9.2 101100 99
2005-04-13 07:31 51°15.461 2°50.301 4 79 9.2 101100 99
2005-04-13 07:32 51°15.462 2°50.287 4.1 86 9.2 101090 99
2005-04-13 07:33 51°15.463 2°50.273 4.2 84 9.2 101090 99
2005-04-13 07:34 51°15.463 2°50.259 5.2 88 9.2 101090 99
2005-04-13 07:35 51°15.463 2°50.247 4.9 91 9.2 101100 99
2005-04-13 07:36 51°15.461 2°50.234 4.6 83 9.3 101100 99
2005-04-13 07:37 51°15.458 2°50.221 4.2 83 9.3 101100 99
2005-04-13 07:38 51°15.451 2°50.211 4.8 82 9.3 101100 99
2005-04-13 07:39 51°15.401 2°50.216 5.5 49 9.3 101090 99
2005-04-13 07:40 51°15.334 2°50.178 6.6 21 9.3 101090 99
2005-04-13 07:41 51°15.279 2°50.093 6.2 10 9.3 101090 99
2005-04-13 07:42 51°15.234 2°49.986 6.7 352 9.3 101090 99
2005-04-13 07:43 51°15.214 2°49.883 7.2 326 9.3 101080 100
2005-04-13 07:44 51°15.211 2°49.787 7.9 315 9.3 101080 100
2005-04-13 07:45 51°15.225 2°49.694 9.4 282 9.3 101080 100
2005-04-13 07:46 51°15.256 2°49.627 8.3 243 9.3 101070 100
2005-04-13 07:47 51°15.298 2°49.585 6.8 229 9.3 101080 100
2005-04-13 07:48 51°15.339 2°49.575 3.8 191 9.3 101090 100
2005-04-13 07:49 51°15.371 2°49.599 6.7 150 9.4 101090 100
2005-04-13 07:50 51°15.383 2°49.642 5.7 120 9.3 101080 100
2005-04-13 07:51 51°15.378 2°49.677 6.3 110 9.3 101090 100
2005-04-13 07:52 51°15.368 2°49.695 6.2 98 9.3 101090 100
2005-04-13 07:53 51°15.358 2°49.702 5.5 94 9.3 101090 100
2005-04-13 07:54 51°15.349 2°49.703 5.8 90 9.3 101090 100
2005-04-13 07:55 51°15.342 2°49.699 5.5 91 9.3 101090 100
2005-04-13 07:56 51°15.335 2°49.69 5.1 86 9.3 101080 100
2005-04-13 07:57 51°15.329 2°49.677 2.6 82 9.3 101080 100
2005-04-13 07:58 51°15.323 2°49.66 4.1 77 9.2 101090 100
2005-04-13 07:59 51°15.317 2°49.642 4.1 71 9.2 101080 100
2005-04-13 08:00 51°15.312 2°49.623 4 75 9.2 101080 100
2005-04-13 08:01 51°15.307 2°49.604 4 68 9.2 101080 100
2005-04-13 08:02 51°15.302 2°49.584 3.9 66 9.2 101080 100
2005-04-13 08:03 51°15.297 2°49.563 4 60 9.2 101080 100
2005-04-13 08:04 51°15.292 2°49.542 3.7 65 9.2 101070 100
2005-04-13 08:05 51°15.287 2°49.519 3.7 62 9.2 101070 100
2005-04-13 08:06 51°15.282 2°49.496 4 58 9.2 101070 100
2005-04-13 08:07 51°15.276 2°49.472 3.8 54 9.2 101070 100
2005-04-13 08:08 51°15.27 2°49.448 3.9 48 9.2 101070 100
2005-04-13 08:09 51°15.266 2°49.424 3.8 41 9.2 101070 100
2005-04-13 08:10 51°15.261 2°49.399 3.8 42 9.2 101070 100
2005-04-13 08:11 51°15.256 2°49.374 4.1 48 9.2 101060 100
2005-04-13 08:12 51°15.251 2°49.352 4.4 43 9.2 101060 100
2005-04-13 08:13 51°15.207 2°49.329 5.7 19 9.3 101060 100
2005-04-13 08:14 51°15.153 2°49.272 5.7 2 9.3 101060 100
2005-04-13 08:15 51°15.101 2°49.193 5.6 354 9.3 101060 100
2005-04-13 08:16 51°15.05 2°49.105 5.8 356 9.3 101060 100
2005-04-13 08:17 51°15.009 2°49.031 5.2 1 9.3 101060 100
2005-04-13 08:18 51°14.974 2°48.976 4.8 6 9.3 101070 100
2005-04-13 08:19 51°14.945 2°48.935 4.5 10 9.4 101070 100
2005-04-13 08:20 51°14.92 2°48.898 4.2 19 9.4 101060 100
2005-04-13 08:21 51°14.899 2°48.867 4.1 19 9.4 101060 100
2005-04-13 08:22 51°14.88 2°48.837 3.7 24 9.4 101060 100
2005-04-13 08:23 51°14.864 2°48.808 3.7 25 9.4 101060 100
2005-04-13 08:24 51°14.848 2°48.779 3.4 14 9.4 101050 100
2005-04-13 08:25 51°14.836 2°48.752 4.4 25 9.4 101050 100
2005-04-13 08:26 51°14.818 2°48.725 4.1 28 9.4 101050 100
2005-04-13 08:27 51°14.769 2°48.668 4.9 351 9.4 101050 100
2005-04-13 08:28 51°14.725 2°48.582 5.9 334 9.4 101050 100
2005-04-13 08:29 51°14.686 2°48.475 5.8 327 9.5 101040 100
2005-04-13 08:30 51°14.66 2°48.358 6.1 326 9.6 101050 100
2005-04-13 08:31 51°14.648 2°48.239 6.2 319 9.6 101040 100
2005-04-13 08:32 51°14.643 2°48.12 7.1 310 9.6 101040 100
2005-04-13 08:33 51°14.646 2°48.014 6.8 300 9.7 101040 100
2005-04-13 08:34 51°14.655 2°47.916 6.6 287 9.7 101040 100
2005-04-13 08:35 51°14.667 2°47.824 6.2 294 9.7 101040 100
2005-04-13 08:36 51°14.682 2°47.727 7.3 293 9.7 101040 100
2005-04-13 08:37 51°14.697 2°47.637 6 294 9.7 101040 100
2005-04-13 08:38 51°14.709 2°47.549 7.7 303 9.7 101040 100
2005-04-13 08:39 51°14.721 2°47.462 6.5 305 9.6 101040 100
2005-04-13 08:40 51°14.732 2°47.376 5.4 42 9.6 101040 100
2005-04-13 08:41 51°14.742 2°47.292 6.9 308 9.6 101040 100
2005-04-13 08:42 51°14.754 2°47.204 5.7 311 9.6 101030 100
2005-04-13 08:43 51°14.764 2°47.116 6.4 305 9.6 101040 100
2005-04-13 08:44 51°14.775 2°47.029 6.1 298 9.6 101040 100
2005-04-13 08:45 51°14.785 2°46.942 7.3 311 9.6 101030 100
2005-04-13 08:46 51°14.794 2°46.854 7.5 312 9.6 101030 100
2005-04-13 08:47 51°14.805 2°46.769 7.4 305 9.6 101030 100
2005-04-13 08:48 51°14.818 2°46.685 7.9 306 9.6 101030 100
2005-04-13 08:49 51°14.832 2°46.601 8.3 303 9.6 101020 100
2005-04-13 08:50 51°14.846 2°46.52 7.5 303 9.6 101020 100
2005-04-13 08:51 51°14.86 2°46.437 7.4 305 9.6 101020 100
2005-04-13 08:52 51°14.874 2°46.355 7.4 304 9.6 101020 100
2005-04-13 08:53 51°14.888 2°46.272 7.5 306 9.6 101020 100
2005-04-13 08:54 51°14.903 2°46.19 8 304 9.6 101020 100
2005-04-13 08:55 51°14.918 2°46.109 6.6 301 9.6 101020 100
2005-04-13 08:56 51°14.934 2°46.03 6.5 309 9.6 101020 100
2005-04-13 08:57 51°14.949 2°45.95 6.8 304 9.6 101010 100
2005-04-13 08:58 51°14.963 2°45.87 6.9 301 9.6 101020 100
2005-04-13 08:59 51°14.978 2°45.789 6.3 305 9.5 101010 100
2005-04-13 09:00 51°14.992 2°45.709 7 305 9.5 101020 100
2005-04-13 09:01 51°15.006 2°45.629 7.3 305 9.5 101010 100
2005-04-13 09:02 51°15.018 2°45.549 6.3 306 9.5 101010 100
2005-04-13 09:03 51°15.03 2°45.469 7.4 305 9.5 101010 100
2005-04-13 09:04 51°15.044 2°45.386 7.8 304 9.5 101010 100
2005-04-13 09:05 51°15.056 2°45.307 7.4 301 9.5 101010 100
2005-04-13 09:06 51°15.07 2°45.222 7.3 301 9.5 101010 100
2005-04-13 09:07 51°15.086 2°45.142 7.4 302 9.5 101010 100
2005-04-13 09:08 51°15.101 2°45.061 6.8 300 9.5 101000 100
2005-04-13 09:09 51°15.116 2°44.979 7.3 298 9.5 101000 100
2005-04-13 09:10 51°15.132 2°44.897 6.8 298 9.5 101000 100
2005-04-13 09:11 51°15.149 2°44.815 7 291 9.5 101000 100
2005-04-13 09:12 51°15.168 2°44.735 6.7 288 9.5 101000 100
2005-04-13 09:13 51°15.189 2°44.661 7.3 281 9.5 101000 100
2005-04-13 09:14 51°15.214 2°44.59 7 274 9.5 101000 100
2005-04-13 09:15 51°15.239 2°44.518 6.3 274 9.5 101000 100
2005-04-13 09:16 51°15.263 2°44.447 6.6 274 9.4 101000 100
2005-04-13 09:17 51°15.286 2°44.38 6.8 269 9.4 101000 100
2005-04-13 09:18 51°15.313 2°44.316 5.2 262 9.4 100990 100
2005-04-13 09:19 51°15.341 2°44.259 4.4 261 9.4 101000 100
2005-04-13 09:20 51°15.369 2°44.205 5.1 264 9.4 101000 100
2005-04-13 09:21 51°15.396 2°44.151 4.5 264 9.4 100990 100
2005-04-13 09:22 51°15.425 2°44.096 5.1 263 9.3 100990 100
2005-04-13 09:23 51°15.451 2°44.04 5.3 268 9.4 100990 100
2005-04-13 09:24 51°15.476 2°43.981 6.1 271 9.4 100990 100
2005-04-13 09:25 51°15.499 2°43.915 6 271 9.4 100990 100
2005-04-13 09:26 51°15.52 2°43.849 6.2 272 9.4 100980 100
2005-04-13 09:27 51°15.54 2°43.783 6.5 277 9.4 100980 100
2005-04-13 09:28 51°15.559 2°43.718 6.2 276 9.3 100980 100
2005-04-13 09:29 51°15.578 2°43.647 5.7 278 9.3 100980 100
2005-04-13 09:30 51°15.597 2°43.584 3.9 261 9.3 100980 100
2005-04-13 09:31 51°15.621 2°43.538 4.4 242 9.3 100980 100
2005-04-13 09:32 51°15.64 2°43.506 3.8 234 9.3 100970 100
2005-04-13 09:33 51°15.652 2°43.478 5 234 9.3 100970 100
2005-04-13 09:34 51°15.66 2°43.451 4.5 236 9.3 100970 100
2005-04-13 09:35 51°15.669 2°43.42 3.9 254 9.3 100980 100
2005-04-13 09:36 51°15.679 2°43.377 4.9 264 9.3 100980 100
2005-04-13 09:37 51°15.685 2°43.323 5.3 283 9.3 100970 100
2005-04-13 09:38 51°15.686 2°43.26 5.4 297 9.4 100970 100
2005-04-13 09:39 51°15.676 2°43.193 5.4 314 9.4 100960 100
2005-04-13 09:40 51°15.657 2°43.128 5.5 331 9.4 100960 100
2005-04-13 09:41 51°15.632 2°43.071 5.2 349 9.4 100960 100
2005-04-13 09:42 51°15.601 2°43.022 5.5 360 9.4 100960 100
2005-04-13 09:43 51°15.567 2°42.976 5.6 3 9.4 100960 100
2005-04-13 09:44 51°15.529 2°42.934 5.4 9 9.4 100960 100
2005-04-13 09:45 51°15.488 2°42.895 5.9 11 9.4 100950 100
2005-04-13 09:46 51°15.444 2°42.853 5.7 10 9.4 100950 100
2005-04-13 09:47 51°15.396 2°42.805 5.8 1 9.4 100950 100
2005-04-13 09:48 51°15.351 2°42.753 6.2 2 9.4 100950 100
2005-04-13 09:49 51°15.304 2°42.7 5.4 8 9.4 100950 100
2005-04-13 09:50 51°15.258 2°42.659 5.7 17 9.4 100960 100
2005-04-13 09:51 51°15.21 2°42.622 5.5 18 9.4 100950 100
2005-04-13 09:52 51°15.164 2°42.588 5.5 19 9.4 100950 100
2005-04-13 09:53 51°15.115 2°42.561 5.5 25 9.4 100950 100
2005-04-13 09:54 51°15.067 2°42.534 5.6 21 9.4 100950 100
2005-04-13 09:55 51°15.015 2°42.503 5.9 19 9.4 100950 100
2005-04-13 09:56 51°14.966 2°42.47 5.8 17 9.4 100940 100
2005-04-13 09:57 51°14.917 2°42.436 6 20 9.4 100940 100
2005-04-13 09:58 51°14.869 2°42.402 5.9 17 9.5 100940 100
2005-04-13 09:59 51°14.821 2°42.369 5.8 21 9.5 100940 100
2005-04-13 10:00 51°14.771 2°42.335 5.5 22 9.5 100940 100
2005-04-13 10:01 51°14.722 2°42.298 5.1 18 9.5 100940 100
2005-04-13 10:02 51°14.674 2°42.254 5.7 12 9.5 100940 100
2005-04-13 10:03 51°14.628 2°42.203 5.4 6 9.5 100940 100
2005-04-13 10:04 51°14.583 2°42.153 6.2 12 9.6 100940 100
2005-04-13 10:05 51°14.535 2°42.1 6.3 20 9.6 100930 100
2005-04-13 10:06 51°14.489 2°42.055 6.2 20 9.6 100930 100
2005-04-13 10:07 51°14.443 2°42.006 7.2 17 9.7 100930 100
2005-04-13 10:08 51°14.397 2°41.956 7 16 9.7 100930 100
2005-04-13 10:09 51°14.352 2°41.908 7.5 23 9.8 100930 100
2005-04-13 10:10 51°14.309 2°41.859 7.8 18 9.8 100920 100
2005-04-13 10:11 51°14.264 2°41.817 8.6 20 9.9 100920 100
2005-04-13 10:12 51°14.22 2°41.774 8.4 18 9.9 100920 100
2005-04-13 10:13 51°14.176 2°41.727 7.5 19 9.9 100920 100
2005-04-13 10:14 51°14.132 2°41.681 7.5 20 9.9 100920 100
2005-04-13 10:15 51°14.09 2°41.635 9.5 24 9.9 100920 100
2005-04-13 10:16 51°14.05 2°41.595 11.2 27 9.9 100920 100
2005-04-13 10:17 51°14.009 2°41.552 9 24 10 100920 100
2005-04-13 10:18 51°13.969 2°41.508 9.2 27 9.9 100920 100
2005-04-13 10:19 51°13.931 2°41.462 9.6 24 10 100920 100
2005-04-13 10:20 51°13.892 2°41.416 9.2 22 10 100920 100
2005-04-13 10:21 51°13.852 2°41.367 9.8 27 10 100920 100
2005-04-13 10:22 51°13.813 2°41.323 8.8 27 9.9 100920 100
2005-04-13 10:23 51°13.773 2°41.276 9.2 26 9.9 100920 100
2005-04-13 10:24 51°13.733 2°41.228 9 25 9.9 100920 100
2005-04-13 10:25 51°13.692 2°41.179 8.9 26 9.9 100920 100
2005-04-13 10:26 51°13.652 2°41.132 7.8 25 9.9 100920 100
2005-04-13 10:27 51°13.611 2°41.085 9.6 21 9.8 100910 100
2005-04-13 10:28 51°13.569 2°41.037 8.2 29 9.8 100910 100
2005-04-13 10:29 51°13.528 2°40.992 9.6 32 9.9 100910 100
2005-04-13 10:30 51°13.486 2°40.949 8.9 32 9.9 100910 100
2005-04-13 10:31 51°13.445 2°40.903 8.4 24 9.9 100910 100
2005-04-13 10:32 51°13.405 2°40.856 8.4 22 9.9 100900 100
2005-04-13 10:33 51°13.364 2°40.809 8.8 25 9.8 100910 100
2005-04-13 10:34 51°13.322 2°40.763 7.8 27 9.8 100910 100
2005-04-13 10:35 51°13.28 2°40.718 8 27 9.8 100900 100
2005-04-13 10:36 51°13.239 2°40.674 7.7 27 9.8 100910 100
2005-04-13 10:37 51°13.194 2°40.627 7.6 24 9.8 100900 100
2005-04-13 10:38 51°13.152 2°40.583 8.1 28 9.7 100900 100
2005-04-13 10:39 51°13.107 2°40.535 7 24 9.8 100900 100
2005-04-13 10:40 51°13.064 2°40.488 7.3 26 9.7 100900 100
2005-04-13 10:41 51°13.019 2°40.442 7.3 24 9.7 100900 100
2005-04-13 10:42 51°12.975 2°40.396 7.6 22 9.7 100900 100
2005-04-13 10:43 51°12.93 2°40.35 6.7 20 9.7 100900 100
2005-04-13 10:44 51°12.886 2°40.303 7.5 24 9.7 100890 100
2005-04-13 10:45 51°12.843 2°40.259 6.6 26 9.8 100890 100
2005-04-13 10:46 51°12.8 2°40.214 6.9 26 9.8 100890 100
2005-04-13 10:47 51°12.756 2°40.17 8.1 32 9.8 100890 100
2005-04-13 10:47 51°12.716 2°40.131 7.7 24 9.8 100890 100
2005-04-13 10:48 51°12.694 2°40.109 7.1 24 9.8 100890 100
2005-04-13 10:49 51°12.661 2°40.078 7.1 17 9.8 100890 100
2005-04-13 10:50 51°12.619 2°40.037 6.9 23 9.8 100890 100
2005-04-13 10:51 51°12.579 2°39.993 7.6 18 9.8 100880 100
2005-04-13 10:52 51°12.543 2°39.951 7.3 20 9.8 100880 100
2005-04-13 10:53 51°12.507 2°39.905 8 14 9.8 100870 100
2005-04-13 10:54 51°12.473 2°39.859 7.9 15 9.8 100870 100
2005-04-13 10:55 51°12.445 2°39.821 7.8 19 9.8 100880 100
2005-04-13 10:56 51°12.421 2°39.789 7.3 27 9.8 100870 100
2005-04-13 10:57 51°12.349 2°39.702 11.8 3 9.8 100870 100
2005-04-13 10:58 51°12.222 2°39.441 13.5 359 9.8 100850 100
2005-04-13 10:59 51°12.074 2°39.133 14.3 358 9.7 100850 100
2005-04-13 11:00 51°11.927 2°38.832 14.6 360 9.8 100850 100
2005-04-13 11:01 51°11.778 2°38.522 15.3 -999 9.8 100850 100
2005-04-13 11:02 51°11.628 2°38.216 14.1 359 9.8 100840 100
2005-04-13 11:03 51°11.482 2°37.917 13.7 358 9.8 100850 100
2005-04-13 11:04 51°11.331 2°37.614 14 359 9.8 100850 100
2005-04-13 11:05 51°11.184 2°37.315 15.3 358 9.8 100850 100
2005-04-13 11:06 51°11.035 2°37.019 15 360 9.8 100840 100
2005-04-13 11:07 51°10.834 2°36.825 13.9 15 9.9 100860 100
2005-04-13 11:08 51°10.604 2°36.714 13.7 17 9.9 100860 100
2005-04-13 11:09 51°10.386 2°36.599 13 16 9.9 100860 100
2005-04-13 11:10 51°10.155 2°36.483 13.3 17 9.9 100850 100
2005-04-13 11:11 51°9.928 2°36.395 13.9 25 9.9 100860 100
2005-04-13 11:12 51°9.694 2°36.302 14.4 23 9.9 100850 100
2005-04-13 11:13 51°9.466 2°36.241 13.3 26 10 100840 100
2005-04-13 11:14 51°9.31 2°36.243 10.6 74 9.9 100850 100
2005-04-13 11:15 51°9.26 2°36.242 9.5 48 10 100860 100
2005-04-13 11:16 51°9.228 2°36.224 8.7 55 10 100850 100
2005-04-13 11:17 51°9.202 2°36.207 8.8 50 10 100850 100
2005-04-13 11:18 51°9.133 2°36.187 11.5 35 10 100850 100
2005-04-13 11:19 51°9.069 2°36.124 10.1 2 10.1 100840 100
2005-04-13 11:20 51°9.033 2°36.035 10.3 336 10.1 100850 100
2005-04-13 11:21 51°9.019 2°35.953 8.8 329 10.2 100840 100
2005-04-13 11:22 51°9.011 2°35.883 8.6 330 10.1 100850 100
2005-04-13 11:23 51°9.001 2°35.81 9.2 336 10.1 100840 100
2005-04-13 11:24 51°8.99 2°35.721 10 333 10.1 100840 100
2005-04-13 11:25 51°8.979 2°35.633 9.3 340 10.1 100840 100
2005-04-13 11:26 51°8.967 2°35.548 9.6 335 10.1 100840 100
2005-04-13 11:27 51°8.955 2°35.465 8.7 341 10.1 100850 100
2005-04-13 11:28 51°8.941 2°35.38 9.4 342 10 100840 100
2005-04-13 11:29 51°8.927 2°35.298 9.7 338 10.1 100840 100
2005-04-13 11:30 51°8.913 2°35.214 8.7 333 10.1 100840 100
2005-04-13 11:31 51°8.901 2°35.134 7.4 336 10.1 100840 100
2005-04-13 11:32 51°8.891 2°35.055 8.9 330 10.1 100830 100
2005-04-13 11:33 51°8.883 2°34.973 9 330 10.1 100830 100
2005-04-13 11:34 51°8.877 2°34.895 10.6 331 10.1 100830 100
2005-04-13 11:35 51°8.871 2°34.819 9.6 333 10.1 100830 100
2005-04-13 11:36 51°8.867 2°34.744 8.7 328 10.1 100830 100
2005-04-13 11:37 51°8.862 2°34.669 8.6 326 10 100830 100
2005-04-13 11:38 51°8.857 2°34.594 8.6 328 10 100830 100
2005-04-13 11:39 51°8.852 2°34.518 9 328 10 100830 100
2005-04-13 11:40 51°8.845 2°34.442 7.9 332 10 100830 100
2005-04-13 11:41 51°8.838 2°34.367 9.1 332 10 100830 100
2005-04-13 11:42 51°8.83 2°34.292 7.4 332 10 100830 100
2005-04-13 11:43 51°8.822 2°34.218 8.9 334 10 100820 100
2005-04-13 11:44 51°8.812 2°34.147 9.5 335 10 100820 100
2005-04-13 11:45 51°8.801 2°34.079 10.4 333 10.1 100820 100
2005-04-13 11:46 51°8.789 2°34.01 9.8 337 10.1 100820 100
2005-04-13 11:47 51°8.777 2°33.945 9.5 343 10.1 100820 100
2005-04-13 11:48 51°8.763 2°33.88 9.5 347 10.1 100820 100
2005-04-13 11:49 51°8.745 2°33.818 10.7 354 10 100830 100
2005-04-13 11:50 51°8.728 2°33.759 10.3 339 10.1 100820 100
2005-04-13 11:51 51°8.723 2°33.693 9.1 317 10.1 100810 100
2005-04-13 11:52 51°8.727 2°33.633 9.8 321 10.1 100810 100
2005-04-13 11:53 51°8.731 2°33.589 9.5 317 10.1 100810 100
2005-04-13 11:54 51°8.739 2°33.54 10.9 324 10.1 100800 100
2005-04-13 11:55 51°8.708 2°33.397 14.4 17 10.1 100800 100
2005-04-13 11:56 51°8.578 2°33.293 14.3 34 10.1 100800 100
2005-04-13 11:57 51°8.393 2°33.203 14.8 26 10.1 100800 100
2005-04-13 11:58 51°8.255 2°33.155 12.9 63 10.2 100800 100
2005-04-13 11:59 51°8.187 2°33.171 10.9 67 10.2 100800 100
2005-04-13 12:00 51°8.143 2°33.176 11.4 65 10.2 100800 100
2005-04-13 12:01 51°8.113 2°33.176 9.6 68 10.2 100800 100
2005-04-13 12:02 51°8.093 2°33.175 9.8 68 10.2 100800 100
2005-04-13 12:03 51°8.056 2°33.17 9.8 39 10.1 100800 100
2005-04-13 12:04 51°8.009 2°33.1 10.4 337 10.2 100800 100
2005-04-13 12:05 51°8.031 2°32.993 9.9 280 10.2 100790 100
2005-04-13 12:06 51°8.104 2°32.958 7.3 241 10.2 100800 100
2005-04-13 12:07 51°8.173 2°32.988 8.7 223 10.2 100810 100
2005-04-13 12:08 51°8.228 2°33.043 4.8 202 10.3 100820 99
2005-04-13 12:09 51°8.278 2°33.108 5.8 203 10.2 100820 99
2005-04-13 12:10 51°8.317 2°33.166 5.3 201 10.3 100810 99
2005-04-13 12:11 51°8.355 2°33.221 4.1 181 10.3 100810 99
2005-04-13 12:12 51°8.383 2°33.289 7.5 168 10.4 100820 99
2005-04-13 12:13 51°8.402 2°33.367 8.1 161 10.3 100820 99
2005-04-13 12:14 51°8.415 2°33.449 7.7 159 10.4 100820 99
2005-04-13 12:15 51°8.427 2°33.533 7.4 152 10.4 100810 98
2005-04-13 12:16 51°8.442 2°33.614 9 152 10.3 100810 98
2005-04-13 12:17 51°8.459 2°33.695 8.6 162 10.4 100810 98
2005-04-13 12:18 51°8.477 2°33.775 6.6 160 10.3 100810 98
2005-04-13 12:19 51°8.5 2°33.854 6.7 167 10.3 100810 98
2005-04-13 12:20 51°8.527 2°33.926 6.3 184 10.3 100810 98
2005-04-13 12:21 51°8.559 2°33.998 7.4 180 10.4 100810 98
2005-04-13 12:22 51°8.586 2°34.068 7.6 183 10.4 100810 98
2005-04-13 12:23 51°8.611 2°34.139 7.8 166 10.4 100810 98
2005-04-13 12:24 51°8.636 2°34.209 7.8 172 10.3 100810 98
2005-04-13 12:25 51°8.661 2°34.283 6.9 171 10.3 100810 97
2005-04-13 12:26 51°8.688 2°34.356 8.3 175 10.3 100810 97
2005-04-13 12:27 51°8.714 2°34.426 6.2 175 10.3 100810 97
2005-04-13 12:28 51°8.74 2°34.501 7.3 181 10.3 100810 97
2005-04-13 12:29 51°8.765 2°34.572 7 176 10.3 100800 97
2005-04-13 12:30 51°8.792 2°34.647 6.9 174 10.2 100800 97
2005-04-13 12:31 51°8.818 2°34.717 5.5 181 10.2 100800 97
2005-04-13 12:32 51°8.846 2°34.788 6.5 177 10.2 100800 97
2005-04-13 12:33 51°8.873 2°34.859 6 175 10.2 100800 97
2005-04-13 12:34 51°8.901 2°34.931 7 175 10.2 100800 97
2005-04-13 12:35 51°8.928 2°35.006 7.4 172 10.2 100800 97
2005-04-13 12:36 51°8.955 2°35.082 6.5 179 10.2 100790 97
2005-04-13 12:37 51°8.982 2°35.157 7 171 10.2 100790 97
2005-04-13 12:38 51°9.008 2°35.233 5.5 176 10.2 100790 97
2005-04-13 12:39 51°9.033 2°35.31 7 160 10.2 100790 97
2005-04-13 12:40 51°9.053 2°35.395 7.7 158 10.2 100790 97
2005-04-13 12:41 51°9.067 2°35.482 7.6 144 10.2 100790 97
2005-04-13 12:42 51°9.077 2°35.572 8.5 143 10.2 100790 97
2005-04-13 12:43 51°9.082 2°35.669 8.8 140 10.2 100790 97
2005-04-13 12:44 51°9.079 2°35.745 7.5 122 10.2 100790 97
2005-04-13 12:45 51°9.073 2°35.805 7 121 10.2 100780 97
2005-04-13 12:46 51°9.068 2°35.852 7.9 111 10.2 100790 97
2005-04-13 12:47 51°9.063 2°35.891 8.2 111 10.2 100780 97
2005-04-13 12:48 51°9.061 2°35.926 8.8 97 10.2 100770 97
2005-04-13 12:49 51°9.061 2°35.956 9.5 105 10.2 100780 97
2005-04-13 12:50 51°9.063 2°35.985 9.7 101 10.2 100770 97
2005-04-13 12:51 51°9.065 2°36.014 8.6 92 10.3 100780 97
2005-04-13 12:52 51°9.057 2°36.055 9.5 92 10.2 100760 97
2005-04-13 12:53 51°9.027 2°36.228 5.7 148 10.2 100760 97
2005-04-13 12:54 51°9.115 2°36.51 0.6 146 10.3 100770 97
2005-04-13 12:55 51°9.23 2°36.835 1.7 137 10.3 100780 97
2005-04-13 12:56 51°9.343 2°37.162 1.6 144 10.3 100780 97
2005-04-13 12:57 51°9.462 2°37.482 3.8 128 10.3 100780 97
2005-04-13 12:58 51°9.554 2°37.827 2.8 123 10.3 100770 97
2005-04-13 12:59 51°9.647 2°38.168 2.6 110 10.3 100770 97
2005-04-13 13:00 51°9.743 2°38.519 3.1 102 10.3 100770 97
2005-04-13 13:01 51°9.839 2°38.867 2.4 122 10.3 100770 97
2005-04-13 13:02 51°9.937 2°39.213 2.8 99 10.3 100760 97
2005-04-13 13:03 51°10.034 2°39.562 2.9 109 10.3 100770 97
2005-04-13 13:04 51°10.131 2°39.913 2 104 10.3 100760 97
2005-04-13 13:05 51°10.227 2°40.264 3 112 10.3 100770 97
2005-04-13 13:06 51°10.328 2°40.597 1.8 98 10.3 100770 97
2005-04-13 13:07 51°10.437 2°40.93 2 121 10.3 100760 97
2005-04-13 13:08 51°10.547 2°41.27 2.2 114 10.3 100760 97
2005-04-13 13:09 51°10.656 2°41.6 2 133 10.3 100760 97
2005-04-13 13:10 51°10.752 2°41.942 2.9 127 10.3 100760 97
2005-04-13 13:11 51°10.84 2°42.285 4.7 135 10.4 100760 97
2005-04-13 13:12 51°10.93 2°42.631 3.1 127 10.4 100750 97
2005-04-13 13:13 51°11.015 2°42.986 3.8 114 10.4 100750 97
2005-04-13 13:14 51°11.098 2°43.338 3.1 116 10.4 100750 97
2005-04-13 13:15 51°11.181 2°43.691 3 119 10.3 100750 97
2005-04-13 13:16 51°11.267 2°44.04 3.3 137 10.3 100750 97
2005-04-13 13:17 51°11.351 2°44.38 3.2 110 10.3 100740 97
2005-04-13 13:18 51°11.44 2°44.737 3.7 135 10.3 100740 97
2005-04-13 13:19 51°11.529 2°45.087 3.1 112 10.3 100740 97
2005-04-13 13:20 51°11.617 2°45.44 2.1 122 10.4 100750 97
2005-04-13 13:21 51°11.704 2°45.794 2.5 124 10.4 100740 97
2005-04-13 13:22 51°11.792 2°46.149 2.3 110 10.4 100730 97
2005-04-13 13:23 51°11.88 2°46.504 2.6 94 10.4 100740 97
2005-04-13 13:24 51°11.969 2°46.861 2.9 88 10.4 100730 97
2005-04-13 13:25 51°12.062 2°47.215 2.6 117 10.3 100740 97
2005-04-13 13:26 51°12.162 2°47.557 2.2 107 10.3 100740 97
2005-04-13 13:27 51°12.266 2°47.91 2.4 111 10.3 100740 97
2005-04-13 13:28 51°12.365 2°48.251 2 106 10.3 100730 97
2005-04-13 13:29 51°12.47 2°48.61 1.9 75 10.3 100730 97
2005-04-13 13:30 51°12.572 2°48.961 1.7 65 10.3 100730 97
2005-04-13 13:31 51°12.675 2°49.314 1.9 44 10.3 100740 97
2005-04-13 13:32 51°12.777 2°49.656 0.9 64 10.3 100730 97
2005-04-13 13:33 51°12.912 2°49.982 1.1 31 10.4 100730 97
2005-04-13 13:34 51°13.046 2°50.317 0.9 75 10.4 100730 97
2005-04-13 13:35 51°13.176 2°50.641 1 63 10.4 100730 97
2005-04-13 13:36 51°13.309 2°50.97 1.1 59 10.4 100730 97
2005-04-13 13:37 51°13.439 2°51.297 1.2 55 10.4 100730 97
2005-04-13 13:38 51°13.569 2°51.632 1.6 104 10.4 100730 97
2005-04-13 13:39 51°13.7 2°51.965 1.3 66 10.4 100730 98
2005-04-13 13:40 51°13.828 2°52.298 1.3 90 10.4 100730 98
2005-04-13 13:41 51°13.962 2°52.636 1 66 10.5 100730 98
2005-04-13 13:42 51°14.092 2°52.97 1.5 69 10.5 100720 98
2005-04-13 13:43 51°14.215 2°53.312 1.4 72 10.5 100720 98
2005-04-13 13:44 51°14.332 2°53.667 2.3 64 10.5 100720 98
2005-04-13 13:45 51°14.423 2°54.036 3.4 85 10.5 100720 98
2005-04-13 13:46 51°14.446 2°54.4 5.1 79 10.4 100720 98
2005-04-13 13:47 51°14.429 2°54.752 5.6 82 10.4 100710 98
2005-04-13 13:48 51°14.36 2°55.058 6.9 70 10.4 100700 98
2005-04-13 13:49 51°14.252 2°55.265 7.2 70 10.4 100710 98
2005-04-13 13:50 51°14.133 2°55.401 8.7 33 10.7 100700 99
2005-04-13 13:51 51°14.016 2°55.489 6.2 64 11 100700 99
2005-04-13 13:52 51°13.901 2°55.578 7.7 29 11.2 100690 98
2005-04-13 13:53 51°13.804 2°55.659 5.9 59 11.3 100700 98
2005-04-13 13:54 51°13.739 2°55.769 3.9 48 11.4 100700 98
2005-04-13 13:55 51°13.686 2°55.876 6.5 66 11.5 100700 98
2005-04-13 13:56 51°13.64 2°55.962 3.5 23 11.5 100690 97
2005-04-13 13:57 51°13.609 2°56.044 4.3 134 11.5 100700 97
2005-04-13 13:58 51°13.595 2°56.101 5.2 137 11.6 100700 97